METAR Data
IDs: Format: Raw Decoded Include TAF

Data at: 2014 UTC 31 Jan 2023

KJCT 311951Z AUTO 36009KT 10SM OVC013 M02/M04 A3029 RMK AO2 SLP257 T10221044